sensor_id;sensor_type;location;lat;lon;timestamp;temperature;humidity
28175;SHT30;59417;44.788;10.334;2023-08-31T00:00:08;21.19;64.14
28175;SHT30;59417;44.788;10.334;2023-08-31T00:02:35;21.15;64.01
28175;SHT30;59417;44.788;10.334;2023-08-31T00:05:00;21.12;64.12
28175;SHT30;59417;44.788;10.334;2023-08-31T00:07:26;21.08;64.27
28175;SHT30;59417;44.788;10.334;2023-08-31T00:09:51;21.15;63.93
28175;SHT30;59417;44.788;10.334;2023-08-31T00:12:17;21.04;64.19
28175;SHT30;59417;44.788;10.334;2023-08-31T00:14:42;21.04;64.08
28175;SHT30;59417;44.788;10.334;2023-08-31T00:17:08;21.01;64.29
28175;SHT30;59417;44.788;10.334;2023-08-31T00:19:34;21.04;64.31
28175;SHT30;59417;44.788;10.334;2023-08-31T00:21:59;21.02;64.52
28175;SHT30;59417;44.788;10.334;2023-08-31T00:24:24;21.05;64.01
28175;SHT30;59417;44.788;10.334;2023-08-31T00:26:55;21.02;63.99
28175;SHT30;59417;44.788;10.334;2023-08-31T00:29:20;21.01;64.18
28175;SHT30;59417;44.788;10.334;2023-08-31T00:31:46;21.04;64.14
28175;SHT30;59417;44.788;10.334;2023-08-31T00:34:13;20.99;64.07
28175;SHT30;59417;44.788;10.334;2023-08-31T00:36:40;20.94;64.24
28175;SHT30;59417;44.788;10.334;2023-08-31T00:39:05;20.96;64.13
28175;SHT30;59417;44.788;10.334;2023-08-31T00:41:31;20.87;64.27
28175;SHT30;59417;44.788;10.334;2023-08-31T00:43:57;20.91;64.22
28175;SHT30;59417;44.788;10.334;2023-08-31T00:46:24;20.90;64.53
28175;SHT30;59417;44.788;10.334;2023-08-31T00:48:49;20.92;64.05
28175;SHT30;59417;44.788;10.334;2023-08-31T00:51:15;20.94;63.86
28175;SHT30;59417;44.788;10.334;2023-08-31T00:53:40;20.94;63.78
28175;SHT30;59417;44.788;10.334;2023-08-31T00:56:07;20.91;64.04
28175;SHT30;59417;44.788;10.334;2023-08-31T00:58:33;20.92;63.66
28175;SHT30;59417;44.788;10.334;2023-08-31T01:01:14;20.98;63.55
28175;SHT30;59417;44.788;10.334;2023-08-31T01:03:53;20.95;63.59
28175;SHT30;59417;44.788;10.334;2023-08-31T01:14:11;20.90;63.89
28175;SHT30;59417;44.788;10.334;2023-08-31T01:16:37;20.96;63.54
28175;SHT30;59417;44.788;10.334;2023-08-31T01:19:06;21.02;63.22
28175;SHT30;59417;44.788;10.334;2023-08-31T01:21:37;20.98;63.66
28175;SHT30;59417;44.788;10.334;2023-08-31T01:24:04;20.95;63.58
28175;SHT30;59417;44.788;10.334;2023-08-31T01:26:30;20.95;63.66
28175;SHT30;59417;44.788;10.334;2023-08-31T01:28:58;20.90;64.02
28175;SHT30;59417;44.788;10.334;2023-08-31T01:31:24;20.90;64.01
28175;SHT30;59417;44.788;10.334;2023-08-31T01:34:02;20.91;63.87
28175;SHT30;59417;44.788;10.334;2023-08-31T01:36:52;20.87;63.91
28175;SHT30;59417;44.788;10.334;2023-08-31T01:39:34;20.82;64.97
28175;SHT30;59417;44.788;10.334;2023-08-31T01:42:01;20.87;64.19
28175;SHT30;59417;44.788;10.334;2023-08-31T01:44:30;20.87;64.33
28175;SHT30;59417;44.788;10.334;2023-08-31T01:47:01;20.87;64.36
28175;SHT30;59417;44.788;10.334;2023-08-31T01:49:27;20.87;64.51
28175;SHT30;59417;44.788;10.334;2023-08-31T01:51:52;20.81;64.44
28175;SHT30;59417;44.788;10.334;2023-08-31T01:54:18;20.80;64.67
28175;SHT30;59417;44.788;10.334;2023-08-31T01:56:43;20.70;65.46
28175;SHT30;59417;44.788;10.334;2023-08-31T01:59:09;20.61;65.85
28175;SHT30;59417;44.788;10.334;2023-08-31T02:01:34;20.51;65.74
28175;SHT30;59417;44.788;10.334;2023-08-31T02:04:00;20.44;66.36
28175;SHT30;59417;44.788;10.334;2023-08-31T02:06:26;20.39;66.66
28175;SHT30;59417;44.788;10.334;2023-08-31T02:08:52;20.34;65.97
28175;SHT30;59417;44.788;10.334;2023-08-31T02:11:17;20.36;66.90
28175;SHT30;59417;44.788;10.334;2023-08-31T02:13:43;20.33;66.40
28175;SHT30;59417;44.788;10.334;2023-08-31T02:16:08;20.31;66.42
28175;SHT30;59417;44.788;10.334;2023-08-31T02:18:35;20.29;66.89
28175;SHT30;59417;44.788;10.334;2023-08-31T02:21:00;20.27;66.08
28175;SHT30;59417;44.788;10.334;2023-08-31T02:23:26;20.26;66.51
28175;SHT30;59417;44.788;10.334;2023-08-31T02:25:51;20.30;66.78
28175;SHT30;59417;44.788;10.334;2023-08-31T02:28:17;20.29;66.31
28175;SHT30;59417;44.788;10.334;2023-08-31T02:30:45;20.23;66.55
28175;SHT30;59417;44.788;10.334;2023-08-31T02:33:11;20.23;65.89
28175;SHT30;59417;44.788;10.334;2023-08-31T02:35:38;20.19;66.27
28175;SHT30;59417;44.788;10.334;2023-08-31T02:38:03;20.13;66.46
28175;SHT30;59417;44.788;10.334;2023-08-31T02:40:29;20.27;65.76
28175;SHT30;59417;44.788;10.334;2023-08-31T02:42:54;20.23;65.51
28175;SHT30;59417;44.788;10.334;2023-08-31T02:45:20;20.06;66.14
28175;SHT30;59417;44.788;10.334;2023-08-31T02:47:45;20.17;65.30
28175;SHT30;59417;44.788;10.334;2023-08-31T02:50:11;20.19;65.41
28175;SHT30;59417;44.788;10.334;2023-08-31T02:52:36;20.13;66.14
28175;SHT30;59417;44.788;10.334;2023-08-31T02:55:02;20.16;66.29
28175;SHT30;59417;44.788;10.334;2023-08-31T02:57:27;20.17;66.27
28175;SHT30;59417;44.788;10.334;2023-08-31T02:59:53;19.92;66.60
28175;SHT30;59417;44.788;10.334;2023-08-31T03:02:19;19.92;66.40
28175;SHT30;59417;44.788;10.334;2023-08-31T03:04:44;19.98;66.02
28175;SHT30;59417;44.788;10.334;2023-08-31T03:07:10;20.05;65.68
28175;SHT30;59417;44.788;10.334;2023-08-31T03:09:39;20.02;65.82
28175;SHT30;59417;44.788;10.334;2023-08-31T03:12:04;19.96;66.02
28175;SHT30;59417;44.788;10.334;2023-08-31T03:14:30;19.86;66.31
28175;SHT30;59417;44.788;10.334;2023-08-31T03:16:56;19.92;66.11
28175;SHT30;59417;44.788;10.334;2023-08-31T03:19:21;20.03;65.63
28175;SHT30;59417;44.788;10.334;2023-08-31T03:21:47;19.99;65.94
28175;SHT30;59417;44.788;10.334;2023-08-31T03:24:14;19.98;65.80
28175;SHT30;59417;44.788;10.334;2023-08-31T03:26:39;19.96;65.79
28175;SHT30;59417;44.788;10.334;2023-08-31T03:29:04;20.03;65.64
28175;SHT30;59417;44.788;10.334;2023-08-31T03:31:30;19.96;66.31
28175;SHT30;59417;44.788;10.334;2023-08-31T03:33:56;19.96;66.00
28175;SHT30;59417;44.788;10.334;2023-08-31T03:36:22;19.86;66.59
28175;SHT30;59417;44.788;10.334;2023-08-31T03:38:47;19.85;66.53
28175;SHT30;59417;44.788;10.334;2023-08-31T03:41:13;19.90;66.00
28175;SHT30;59417;44.788;10.334;2023-08-31T03:43:38;19.87;66.14
28175;SHT30;59417;44.788;10.334;2023-08-31T03:46:05;19.89;66.10
28175;SHT30;59417;44.788;10.334;2023-08-31T03:48:30;19.89;66.54
28175;SHT30;59417;44.788;10.334;2023-08-31T03:50:56;19.73;66.96
28175;SHT30;59417;44.788;10.334;2023-08-31T03:53:22;19.69;67.05
28175;SHT30;59417;44.788;10.334;2023-08-31T03:55:48;19.65;67.51
28175;SHT30;59417;44.788;10.334;2023-08-31T03:58:14;19.62;67.85
28175;SHT30;59417;44.788;10.334;2023-08-31T04:00:42;19.61;67.28
28175;SHT30;59417;44.788;10.334;2023-08-31T04:03:08;19.76;66.55
28175;SHT30;59417;44.788;10.334;2023-08-31T04:05:35;19.68;67.04
28175;SHT30;59417;44.788;10.334;2023-08-31T04:08:02;19.65;68.23
28175;SHT30;59417;44.788;10.334;2023-08-31T04:10:28;19.61;68.02
28175;SHT30;59417;44.788;10.334;2023-08-31T04:12:55;19.57;68.55
28175;SHT30;59417;44.788;10.334;2023-08-31T04:15:20;19.62;68.40
28175;SHT30;59417;44.788;10.334;2023-08-31T04:17:46;19.63;68.19
28175;SHT30;59417;44.788;10.334;2023-08-31T04:20:11;19.62;68.06
28175;SHT30;59417;44.788;10.334;2023-08-31T04:22:37;19.59;68.27
28175;SHT30;59417;44.788;10.334;2023-08-31T04:25:03;19.61;68.16
28175;SHT30;59417;44.788;10.334;2023-08-31T04:27:28;19.68;68.06
28175;SHT30;59417;44.788;10.334;2023-08-31T04:30:00;19.61;68.22
28175;SHT30;59417;44.788;10.334;2023-08-31T04:32:26;19.65;68.35
28175;SHT30;59417;44.788;10.334;2023-08-31T04:34:51;19.65;69.01
28175;SHT30;59417;44.788;10.334;2023-08-31T04:37:17;19.52;69.23
28175;SHT30;59417;44.788;10.334;2023-08-31T04:39:42;19.54;69.13
28175;SHT30;59417;44.788;10.334;2023-08-31T04:42:08;19.57;69.23
28175;SHT30;59417;44.788;10.334;2023-08-31T04:44:33;19.58;68.85
28175;SHT30;59417;44.788;10.334;2023-08-31T04:46:59;19.52;69.60
28175;SHT30;59417;44.788;10.334;2023-08-31T04:49:25;19.48;69.94
28175;SHT30;59417;44.788;10.334;2023-08-31T04:51:52;19.52;70.26
28175;SHT30;59417;44.788;10.334;2023-08-31T04:54:17;19.45;70.12
28175;SHT30;59417;44.788;10.334;2023-08-31T04:56:43;19.59;69.80
28175;SHT30;59417;44.788;10.334;2023-08-31T04:59:08;19.59;69.80
28175;SHT30;59417;44.788;10.334;2023-08-31T05:01:33;19.66;69.84
28175;SHT30;59417;44.788;10.334;2023-08-31T05:03:59;19.95;69.21
28175;SHT30;59417;44.788;10.334;2023-08-31T05:06:31;19.99;69.52
28175;SHT30;59417;44.788;10.334;2023-08-31T05:08:58;19.70;70.24
28175;SHT30;59417;44.788;10.334;2023-08-31T05:11:24;19.68;69.45
28175;SHT30;59417;44.788;10.334;2023-08-31T05:13:49;19.49;70.10
28175;SHT30;59417;44.788;10.334;2023-08-31T05:16:15;19.44;70.46
28175;SHT30;59417;44.788;10.334;2023-08-31T05:18:50;19.57;70.14
28175;SHT30;59417;44.788;10.334;2023-08-31T05:21:23;19.57;70.43
28175;SHT30;59417;44.788;10.334;2023-08-31T05:23:49;19.73;70.07
28175;SHT30;59417;44.788;10.334;2023-08-31T05:26:14;19.76;70.46
28175;SHT30;59417;44.788;10.334;2023-08-31T05:28:40;19.63;70.63
28175;SHT30;59417;44.788;10.334;2023-08-31T05:31:06;19.66;70.71
28175;SHT30;59417;44.788;10.334;2023-08-31T05:33:31;19.61;70.94
28175;SHT30;59417;44.788;10.334;2023-08-31T05:36:02;19.73;70.15
28175;SHT30;59417;44.788;10.334;2023-08-31T05:38:29;19.73;70.42
28175;SHT30;59417;44.788;10.334;2023-08-31T05:41:02;19.72;70.45
28175;SHT30;59417;44.788;10.334;2023-08-31T05:43:28;19.80;69.83
28175;SHT30;59417;44.788;10.334;2023-08-31T05:45:53;19.70;69.81
28175;SHT30;59417;44.788;10.334;2023-08-31T05:48:19;19.73;69.84
28175;SHT30;59417;44.788;10.334;2023-08-31T05:50:44;19.69;70.38
28175;SHT30;59417;44.788;10.334;2023-08-31T05:53:10;19.72;70.34
28175;SHT30;59417;44.788;10.334;2023-08-31T05:55:35;19.75;70.69
28175;SHT30;59417;44.788;10.334;2023-08-31T05:58:01;19.90;70.61
28175;SHT30;59417;44.788;10.334;2023-08-31T06:00:26;20.02;69.65
28175;SHT30;59417;44.788;10.334;2023-08-31T06:02:52;20.08;69.07
28175;SHT30;59417;44.788;10.334;2023-08-31T06:05:17;20.13;69.35
28175;SHT30;59417;44.788;10.334;2023-08-31T06:07:43;20.37;69.26
28175;SHT30;59417;44.788;10.334;2023-08-31T06:10:08;20.37;69.70
28175;SHT30;59417;44.788;10.334;2023-08-31T06:12:35;20.33;70.07
28175;SHT30;59417;44.788;10.334;2023-08-31T06:15:00;20.33;69.80
28175;SHT30;59417;44.788;10.334;2023-08-31T06:17:26;20.26;70.61
28175;SHT30;59417;44.788;10.334;2023-08-31T06:19:51;20.23;69.25
28175;SHT30;59417;44.788;10.334;2023-08-31T06:22:17;20.16;69.48
28175;SHT30;59417;44.788;10.334;2023-08-31T06:24:43;20.19;69.50
28175;SHT30;59417;44.788;10.334;2023-08-31T06:27:09;20.31;68.93
28175;SHT30;59417;44.788;10.334;2023-08-31T06:29:34;20.41;69.38
28175;SHT30;59417;44.788;10.334;2023-08-31T06:31:59;20.41;68.74
28175;SHT30;59417;44.788;10.334;2023-08-31T06:34:25;20.34;69.79
28175;SHT30;59417;44.788;10.334;2023-08-31T06:36:50;20.41;70.22
28175;SHT30;59417;44.788;10.334;2023-08-31T06:39:16;20.39;70.67
28175;SHT30;59417;44.788;10.334;2023-08-31T06:41:41;20.47;69.28
28175;SHT30;59417;44.788;10.334;2023-08-31T06:44:07;20.53;69.23
28175;SHT30;59417;44.788;10.334;2023-08-31T06:46:32;20.64;68.55
28175;SHT30;59417;44.788;10.334;2023-08-31T06:49:03;20.78;68.06
28175;SHT30;59417;44.788;10.334;2023-08-31T06:51:30;20.81;68.60
28175;SHT30;59417;44.788;10.334;2023-08-31T06:53:56;20.90;68.14
28175;SHT30;59417;44.788;10.334;2023-08-31T06:56:26;20.82;69.05
28175;SHT30;59417;44.788;10.334;2023-08-31T06:58:52;20.90;68.82
28175;SHT30;59417;44.788;10.334;2023-08-31T07:01:17;20.99;66.99
28175;SHT30;59417;44.788;10.334;2023-08-31T07:03:43;20.95;67.22
28175;SHT30;59417;44.788;10.334;2023-08-31T07:06:08;21.06;67.04
28175;SHT30;59417;44.788;10.334;2023-08-31T07:08:34;20.94;67.82
28175;SHT30;59417;44.788;10.334;2023-08-31T07:11:01;20.95;67.73
28175;SHT30;59417;44.788;10.334;2023-08-31T07:13:27;21.04;67.27
28175;SHT30;59417;44.788;10.334;2023-08-31T07:15:52;21.09;67.08
28175;SHT30;59417;44.788;10.334;2023-08-31T07:18:17;21.06;67.94
28175;SHT30;59417;44.788;10.334;2023-08-31T07:20:45;21.19;68.31
28175;SHT30;59417;44.788;10.334;2023-08-31T07:23:10;21.23;68.37
28175;SHT30;59417;44.788;10.334;2023-08-31T07:25:36;21.33;67.75
28175;SHT30;59417;44.788;10.334;2023-08-31T07:28:01;21.36;67.31
28175;SHT30;59417;44.788;10.334;2023-08-31T07:30:28;21.26;67.44
28175;SHT30;59417;44.788;10.334;2023-08-31T07:32:55;21.29;67.77
28175;SHT30;59417;44.788;10.334;2023-08-31T07:35:20;21.47;67.61
28175;SHT30;59417;44.788;10.334;2023-08-31T07:37:46;21.50;67.19
28175;SHT30;59417;44.788;10.334;2023-08-31T07:40:12;21.50;67.13
28175;SHT30;59417;44.788;10.334;2023-08-31T07:42:37;21.70;67.34
28175;SHT30;59417;44.788;10.334;2023-08-31T07:45:03;21.77;65.82
28175;SHT30;59417;44.788;10.334;2023-08-31T07:47:30;21.65;65.99
28175;SHT30;59417;44.788;10.334;2023-08-31T07:49:56;21.66;65.68
28175;SHT30;59417;44.788;10.334;2023-08-31T07:52:22;21.78;65.43
28175;SHT30;59417;44.788;10.334;2023-08-31T07:54:48;21.87;63.49
28175;SHT30;59417;44.788;10.334;2023-08-31T07:57:14;21.76;64.49
28175;SHT30;59417;44.788;10.334;2023-08-31T07:59:39;21.77;65.11
28175;SHT30;59417;44.788;10.334;2023-08-31T08:02:05;21.94;63.79
28175;SHT30;59417;44.788;10.334;2023-08-31T08:04:31;21.98;64.04
28175;SHT30;59417;44.788;10.334;2023-08-31T08:06:57;22.14;63.44
28175;SHT30;59417;44.788;10.334;2023-08-31T08:09:22;22.11;62.95
28175;SHT30;59417;44.788;10.334;2023-08-31T08:11:48;22.20;62.14
28175;SHT30;59417;44.788;10.334;2023-08-31T08:14:13;22.18;62.27
28175;SHT30;59417;44.788;10.334;2023-08-31T08:16:41;22.08;62.68
28175;SHT30;59417;44.788;10.334;2023-08-31T08:19:07;22.01;63.31
28175;SHT30;59417;44.788;10.334;2023-08-31T08:21:33;22.21;62.64
28175;SHT30;59417;44.788;10.334;2023-08-31T08:23:58;22.20;63.41
28175;SHT30;59417;44.788;10.334;2023-08-31T08:26:24;22.22;64.13
28175;SHT30;59417;44.788;10.334;2023-08-31T08:28:49;22.39;63.96
28175;SHT30;59417;44.788;10.334;2023-08-31T08:31:15;22.45;61.86
28175;SHT30;59417;44.788;10.334;2023-08-31T08:33:40;22.57;62.38
28175;SHT30;59417;44.788;10.334;2023-08-31T08:36:06;22.75;61.46
28175;SHT30;59417;44.788;10.334;2023-08-31T08:38:32;22.71;60.04
28175;SHT30;59417;44.788;10.334;2023-08-31T08:40:57;22.79;61.03
28175;SHT30;59417;44.788;10.334;2023-08-31T08:43:24;22.82;61.69
28175;SHT30;59417;44.788;10.334;2023-08-31T08:45:50;22.95;60.09
28175;SHT30;59417;44.788;10.334;2023-08-31T08:48:16;22.90;61.04
28175;SHT30;59417;44.788;10.334;2023-08-31T08:50:42;23.00;61.31
28175;SHT30;59417;44.788;10.334;2023-08-31T08:53:08;23.04;60.42
28175;SHT30;59417;44.788;10.334;2023-08-31T08:55:34;23.10;61.16
28175;SHT30;59417;44.788;10.334;2023-08-31T08:58:00;23.10;61.19
28175;SHT30;59417;44.788;10.334;2023-08-31T09:00:26;23.18;59.12
28175;SHT30;59417;44.788;10.334;2023-08-31T09:02:52;23.12;60.26
28175;SHT30;59417;44.788;10.334;2023-08-31T09:05:17;23.16;58.32
28175;SHT30;59417;44.788;10.334;2023-08-31T09:08:02;23.16;58.05
28175;SHT30;59417;44.788;10.334;2023-08-31T09:10:38;23.22;59.40
28175;SHT30;59417;44.788;10.334;2023-08-31T09:13:22;23.40;59.91
28175;SHT30;59417;44.788;10.334;2023-08-31T09:15:51;23.51;60.17
28175;SHT30;59417;44.788;10.334;2023-08-31T09:18:22;23.58;58.62
28175;SHT30;59417;44.788;10.334;2023-08-31T09:20:48;23.68;58.36
28175;SHT30;59417;44.788;10.334;2023-08-31T09:23:14;23.87;58.65
28175;SHT30;59417;44.788;10.334;2023-08-31T09:25:47;24.02;58.81
28175;SHT30;59417;44.788;10.334;2023-08-31T09:28:14;24.21;58.70
28175;SHT30;59417;44.788;10.334;2023-08-31T09:30:40;24.29;57.99
28175;SHT30;59417;44.788;10.334;2023-08-31T09:33:09;24.43;57.91
28175;SHT30;59417;44.788;10.334;2023-08-31T09:35:47;24.53;57.44
28175;SHT30;59417;44.788;10.334;2023-08-31T09:38:14;24.62;57.29
28175;SHT30;59417;44.788;10.334;2023-08-31T09:40:39;24.66;56.57
28175;SHT30;59417;44.788;10.334;2023-08-31T09:43:05;24.75;55.90
28175;SHT30;59417;44.788;10.334;2023-08-31T09:45:31;24.75;55.93
28175;SHT30;59417;44.788;10.334;2023-08-31T09:48:02;24.69;56.21
28175;SHT30;59417;44.788;10.334;2023-08-31T09:50:28;24.67;55.14
28175;SHT30;59417;44.788;10.334;2023-08-31T09:52:55;24.53;54.93
28175;SHT30;59417;44.788;10.334;2023-08-31T09:55:21;24.43;55.45
28175;SHT30;59417;44.788;10.334;2023-08-31T09:57:48;24.52;55.96
28175;SHT30;59417;44.788;10.334;2023-08-31T10:00:14;24.56;56.09
28175;SHT30;59417;44.788;10.334;2023-08-31T10:02:41;24.66;54.93
28175;SHT30;59417;44.788;10.334;2023-08-31T10:05:07;24.80;55.63
28175;SHT30;59417;44.788;10.334;2023-08-31T10:07:33;24.91;54.51
28175;SHT30;59417;44.788;10.334;2023-08-31T10:09:59;25.02;55.83
28175;SHT30;59417;44.788;10.334;2023-08-31T10:12:26;25.23;56.46
28175;SHT30;59417;44.788;10.334;2023-08-31T10:14:52;25.47;55.90
28175;SHT30;59417;44.788;10.334;2023-08-31T10:17:19;25.64;55.07
28175;SHT30;59417;44.788;10.334;2023-08-31T10:19:45;25.68;52.56
28175;SHT30;59417;44.788;10.334;2023-08-31T10:22:11;25.54;53.79
28175;SHT30;59417;44.788;10.334;2023-08-31T10:27:38;25.42;54.66
28175;SHT30;59417;44.788;10.334;2023-08-31T10:30:14;25.64;55.43
28175;SHT30;59417;44.788;10.334;2023-08-31T10:32:40;25.98;55.31
28175;SHT30;59417;44.788;10.334;2023-08-31T10:35:07;26.25;53.42
28175;SHT30;59417;44.788;10.334;2023-08-31T10:37:32;26.28;53.71
28175;SHT30;59417;44.788;10.334;2023-08-31T10:40:07;26.32;53.26
28175;SHT30;59417;44.788;10.334;2023-08-31T10:42:41;26.40;53.17
28175;SHT30;59417;44.788;10.334;2023-08-31T10:45:06;26.57;52.70
28175;SHT30;59417;44.788;10.334;2023-08-31T10:47:40;26.70;52.36
28175;SHT30;59417;44.788;10.334;2023-08-31T10:50:15;26.76;50.76
28175;SHT30;59417;44.788;10.334;2023-08-31T10:52:44;26.87;52.61
28175;SHT30;59417;44.788;10.334;2023-08-31T10:55:11;27.02;52.45
28175;SHT30;59417;44.788;10.334;2023-08-31T10:57:36;27.11;51.40
28175;SHT30;59417;44.788;10.334;2023-08-31T11:00:02;27.21;50.71
28175;SHT30;59417;44.788;10.334;2023-08-31T11:07:20;26.87;51.73
28175;SHT30;59417;44.788;10.334;2023-08-31T11:09:48;26.83;51.25
28175;SHT30;59417;44.788;10.334;2023-08-31T11:12:14;26.91;52.09
28175;SHT30;59417;44.788;10.334;2023-08-31T11:14:40;27.00;52.36
28175;SHT30;59417;44.788;10.334;2023-08-31T11:17:05;27.16;52.23
28175;SHT30;59417;44.788;10.334;2023-08-31T11:19:32;27.11;50.30
28175;SHT30;59417;44.788;10.334;2023-08-31T11:21:58;27.01;51.87
28175;SHT30;59417;44.788;10.334;2023-08-31T11:24:25;26.97;51.70
28175;SHT30;59417;44.788;10.334;2023-08-31T11:26:50;26.90;52.11
28175;SHT30;59417;44.788;10.334;2023-08-31T11:29:16;26.90;52.71
28175;SHT30;59417;44.788;10.334;2023-08-31T11:31:41;26.71;52.77
28175;SHT30;59417;44.788;10.334;2023-08-31T11:34:11;26.51;52.16
28175;SHT30;59417;44.788;10.334;2023-08-31T11:36:37;26.32;52.28
28175;SHT30;59417;44.788;10.334;2023-08-31T11:39:06;26.08;52.09
28175;SHT30;59417;44.788;10.334;2023-08-31T11:41:33;26.00;53.36
28175;SHT30;59417;44.788;10.334;2023-08-31T11:44:02;25.99;53.77
28175;SHT30;59417;44.788;10.334;2023-08-31T11:46:39;26.30;53.43
28175;SHT30;59417;44.788;10.334;2023-08-31T11:49:19;26.71;52.69
28175;SHT30;59417;44.788;10.334;2023-08-31T11:51:46;27.00;53.12
28175;SHT30;59417;44.788;10.334;2023-08-31T11:54:13;27.21;52.42
28175;SHT30;59417;44.788;10.334;2023-08-31T11:56:47;27.42;51.24
28175;SHT30;59417;44.788;10.334;2023-08-31T11:59:17;27.51;51.06
28175;SHT30;59417;44.788;10.334;2023-08-31T12:01:42;27.52;50.95
28175;SHT30;59417;44.788;10.334;2023-08-31T12:04:12;27.28;50.98
28175;SHT30;59417;44.788;10.334;2023-08-31T12:06:37;27.00;51.88
28175;SHT30;59417;44.788;10.334;2023-08-31T12:09:04;26.71;52.06
28175;SHT30;59417;44.788;10.334;2023-08-31T12:11:30;26.41;52.47
28175;SHT30;59417;44.788;10.334;2023-08-31T12:13:59;26.25;51.93
28175;SHT30;59417;44.788;10.334;2023-08-31T12:16:24;26.02;54.10
28175;SHT30;59417;44.788;10.334;2023-08-31T12:18:50;25.81;53.59
28175;SHT30;59417;44.788;10.334;2023-08-31T12:21:18;25.72;54.15
28175;SHT30;59417;44.788;10.334;2023-08-31T12:23:44;25.64;53.78
28175;SHT30;59417;44.788;10.334;2023-08-31T12:26:09;25.55;54.83
28175;SHT30;59417;44.788;10.334;2023-08-31T12:28:35;25.55;54.92
28175;SHT30;59417;44.788;10.334;2023-08-31T12:31:01;25.55;56.88
28175;SHT30;59417;44.788;10.334;2023-08-31T12:33:26;25.33;58.00
28175;SHT30;59417;44.788;10.334;2023-08-31T12:35:52;25.16;58.56
28175;SHT30;59417;44.788;10.334;2023-08-31T12:38:17;25.10;58.50
28175;SHT30;59417;44.788;10.334;2023-08-31T12:40:44;25.11;57.85
28175;SHT30;59417;44.788;10.334;2023-08-31T12:43:09;25.10;58.02
28175;SHT30;59417;44.788;10.334;2023-08-31T12:45:35;25.18;57.98
28175;SHT30;59417;44.788;10.334;2023-08-31T12:48:01;25.27;58.11
28175;SHT30;59417;44.788;10.334;2023-08-31T12:50:30;25.64;57.12
28175;SHT30;59417;44.788;10.334;2023-08-31T12:53:03;25.72;57.43
28175;SHT30;59417;44.788;10.334;2023-08-31T12:55:29;26.00;56.15
28175;SHT30;59417;44.788;10.334;2023-08-31T12:57:55;26.18;55.50
28175;SHT30;59417;44.788;10.334;2023-08-31T13:00:21;26.23;55.55
28175;SHT30;59417;44.788;10.334;2023-08-31T13:02:46;26.32;55.79
28175;SHT30;59417;44.788;10.334;2023-08-31T13:05:12;26.57;53.71
28175;SHT30;59417;44.788;10.334;2023-08-31T13:07:38;26.68;51.26
28175;SHT30;59417;44.788;10.334;2023-08-31T13:10:04;26.83;51.60
28175;SHT30;59417;44.788;10.334;2023-08-31T13:12:32;26.90;51.78
28175;SHT30;59417;44.788;10.334;2023-08-31T13:14:58;26.90;50.56
28175;SHT30;59417;44.788;10.334;2023-08-31T13:17:23;26.92;50.63
28175;SHT30;59417;44.788;10.334;2023-08-31T13:19:55;26.97;50.00
28175;SHT30;59417;44.788;10.334;2023-08-31T13:22:21;26.95;49.96
28175;SHT30;59417;44.788;10.334;2023-08-31T13:24:46;26.97;50.65
28175;SHT30;59417;44.788;10.334;2023-08-31T13:27:12;27.04;50.63
28175;SHT30;59417;44.788;10.334;2023-08-31T13:29:39;27.12;50.72
28175;SHT30;59417;44.788;10.334;2023-08-31T13:32:05;27.11;50.77
28175;SHT30;59417;44.788;10.334;2023-08-31T13:34:30;27.11;51.14
28175;SHT30;59417;44.788;10.334;2023-08-31T13:36:56;27.19;50.98
28175;SHT30;59417;44.788;10.334;2023-08-31T13:39:21;27.26;50.46
28175;SHT30;59417;44.788;10.334;2023-08-31T13:41:50;27.28;50.06
28175;SHT30;59417;44.788;10.334;2023-08-31T13:44:17;27.25;49.28
28175;SHT30;59417;44.788;10.334;2023-08-31T13:46:42;27.10;48.78
28175;SHT30;59417;44.788;10.334;2023-08-31T13:49:08;26.92;50.00
28175;SHT30;59417;44.788;10.334;2023-08-31T13:51:33;26.91;50.41
28175;SHT30;59417;44.788;10.334;2023-08-31T13:53:59;26.88;51.22
28175;SHT30;59417;44.788;10.334;2023-08-31T13:56:24;26.87;50.35
28175;SHT30;59417;44.788;10.334;2023-08-31T13:58:50;26.98;51.30
28175;SHT30;59417;44.788;10.334;2023-08-31T14:01:15;27.08;51.37
28175;SHT30;59417;44.788;10.334;2023-08-31T14:03:41;27.05;51.06
28175;SHT30;59417;44.788;10.334;2023-08-31T14:06:07;27.04;51.71
28175;SHT30;59417;44.788;10.334;2023-08-31T14:08:33;26.97;52.64
28175;SHT30;59417;44.788;10.334;2023-08-31T14:10:59;26.90;51.11
28175;SHT30;59417;44.788;10.334;2023-08-31T14:13:24;26.84;52.42
28175;SHT30;59417;44.788;10.334;2023-08-31T14:15:50;26.65;51.91
28175;SHT30;59417;44.788;10.334;2023-08-31T14:18:15;26.57;53.10
28175;SHT30;59417;44.788;10.334;2023-08-31T14:20:41;26.57;51.91
28175;SHT30;59417;44.788;10.334;2023-08-31T14:23:06;26.39;53.40
28175;SHT30;59417;44.788;10.334;2023-08-31T14:25:35;26.28;52.73
28175;SHT30;59417;44.788;10.334;2023-08-31T14:28:01;26.19;53.69
28175;SHT30;59417;44.788;10.334;2023-08-31T14:30:28;26.10;55.33
28175;SHT30;59417;44.788;10.334;2023-08-31T14:32:53;26.03;54.78
28175;SHT30;59417;44.788;10.334;2023-08-31T14:35:19;26.16;53.96
28175;SHT30;59417;44.788;10.334;2023-08-31T14:37:44;26.10;54.38
28175;SHT30;59417;44.788;10.334;2023-08-31T14:40:10;26.09;54.70
28175;SHT30;59417;44.788;10.334;2023-08-31T14:42:35;26.03;54.48
28175;SHT30;59417;44.788;10.334;2023-08-31T14:45:01;26.00;54.42
28175;SHT30;59417;44.788;10.334;2023-08-31T14:47:27;25.96;54.67
28175;SHT30;59417;44.788;10.334;2023-08-31T14:49:54;25.88;55.61
28175;SHT30;59417;44.788;10.334;2023-08-31T14:52:20;25.77;56.17
28175;SHT30;59417;44.788;10.334;2023-08-31T14:54:45;25.88;55.37
28175;SHT30;59417;44.788;10.334;2023-08-31T14:57:11;25.86;54.53
28175;SHT30;59417;44.788;10.334;2023-08-31T14:59:36;25.81;55.88
28175;SHT30;59417;44.788;10.334;2023-08-31T15:02:01;25.84;55.76
28175;SHT30;59417;44.788;10.334;2023-08-31T15:04:30;25.92;53.89
28175;SHT30;59417;44.788;10.334;2023-08-31T15:06:56;25.79;54.95
28175;SHT30;59417;44.788;10.334;2023-08-31T15:09:22;25.71;55.71
28175;SHT30;59417;44.788;10.334;2023-08-31T15:11:48;25.65;56.96
28175;SHT30;59417;44.788;10.334;2023-08-31T15:14:13;25.61;56.23
28175;SHT30;59417;44.788;10.334;2023-08-31T15:16:41;25.78;56.71
28175;SHT30;59417;44.788;10.334;2023-08-31T15:19:29;25.67;57.55
28175;SHT30;59417;44.788;10.334;2023-08-31T15:22:04;25.61;58.21
28175;SHT30;59417;44.788;10.334;2023-08-31T15:24:50;25.57;56.44
28175;SHT30;59417;44.788;10.334;2023-08-31T15:27:34;25.57;55.68